createdAt,value
2017-07-02T00:01:16.634Z,93.20
2017-07-02T00:03:44.096Z,93.20
2017-07-02T00:06:12.420Z,92.60
2017-07-02T00:08:39.887Z,92.60
2017-07-02T00:11:07.366Z,92.60
2017-07-02T00:13:34.870Z,92.60
2017-07-02T00:16:02.345Z,92.40
2017-07-02T00:18:29.835Z,92.50
2017-07-02T00:20:57.334Z,92.40
2017-07-02T00:23:25.605Z,92.80
2017-07-02T00:25:53.871Z,92.80
2017-07-02T00:28:21.342Z,92.70
2017-07-02T00:30:49.622Z,92.50
2017-07-02T00:33:17.861Z,92.80
2017-07-02T00:35:45.324Z,92.80
2017-07-02T00:38:12.825Z,92.90
2017-07-02T00:40:40.303Z,93.10
2017-07-02T00:43:07.792Z,93.50
2017-07-02T00:45:35.269Z,93.40
2017-07-02T00:48:02.760Z,93.70
2017-07-02T00:50:30.256Z,93.80
2017-07-02T00:52:57.736Z,94.20
2017-07-02T00:55:26.025Z,93.80
2017-07-02T00:57:54.264Z,93.80
2017-07-02T01:00:21.752Z,93.80
2017-07-02T01:02:49.221Z,94.30
2017-07-02T01:05:17.459Z,94.20
2017-07-02T01:07:44.946Z,94.20
2017-07-02T01:10:12.433Z,94.80
2017-07-02T01:12:39.932Z,94.50
2017-07-02T01:15:07.402Z,94.60
2017-07-02T01:17:34.873Z,94.50
2017-07-02T01:20:02.391Z,94.80
2017-07-02T01:22:29.880Z,95.10
2017-07-02T01:24:57.350Z,94.90
2017-07-02T01:27:24.845Z,94.90
2017-07-02T01:29:52.332Z,94.90
2017-07-02T01:32:19.795Z,95.00
2017-07-02T01:34:47.284Z,95.00
2017-07-02T01:37:14.761Z,95.10
2017-07-02T01:39:43.073Z,94.80
2017-07-02T01:42:10.567Z,94.80
2017-07-02T01:44:38.044Z,95.10
2017-07-02T01:47:06.292Z,95.10
2017-07-02T01:49:33.788Z,95.10
2017-07-02T01:52:02.051Z,95.20
2017-07-02T01:54:29.585Z,95.20
2017-07-02T01:56:57.066Z,95.20
2017-07-02T01:59:24.541Z,95.00
2017-07-02T02:02:04.668Z,94.60
2017-07-02T02:04:32.140Z,94.60
2017-07-02T02:06:59.630Z,94.80
2017-07-02T02:09:27.108Z,95.10
2017-07-02T02:11:54.568Z,94.40
2017-07-02T02:14:22.077Z,94.60
2017-07-02T02:16:50.316Z,94.70
2017-07-02T02:19:19.517Z,94.70
2017-07-02T02:21:47.012Z,94.90
2017-07-02T02:24:15.281Z,95.30
2017-07-02T02:26:42.761Z,95.30
2017-07-02T02:29:10.246Z,95.50
2017-07-02T02:31:37.729Z,95.90
2017-07-02T02:34:05.220Z,95.90
2017-07-02T02:36:33.464Z,96.60
2017-07-02T02:39:00.952Z,96.60
2017-07-02T02:41:29.197Z,96.60
2017-07-02T02:43:56.705Z,96.60
2017-07-02T02:46:24.957Z,96.90
2017-07-02T02:48:52.435Z,96.90
2017-07-02T02:51:20.693Z,97.20
2017-07-02T02:53:48.199Z,97.20
2017-07-02T02:56:15.688Z,97.30
2017-07-02T02:58:43.156Z,97.60
2017-07-02T03:01:10.624Z,97.90
2017-07-02T03:03:38.883Z,98.00
2017-07-02T03:06:06.384Z,98.00
2017-07-02T03:08:34.454Z,97.80
2017-07-02T03:11:02.704Z,97.70
2017-07-02T03:13:31.703Z,98.20
2017-07-02T03:15:59.962Z,98.10
2017-07-02T03:18:27.432Z,98.10
2017-07-02T03:20:54.905Z,98.00
2017-07-02T03:23:24.644Z,98.20
2017-07-02T03:25:52.111Z,98.20
2017-07-02T03:28:20.579Z,98.00
2017-07-02T03:30:48.091Z,98.00
2017-07-02T03:33:15.580Z,97.90
2017-07-02T03:35:43.047Z,97.90
2017-07-02T03:38:10.709Z,98.10
2017-07-02T03:40:38.187Z,98.20
2017-07-02T03:43:05.677Z,98.00
2017-07-02T03:45:33.148Z,98.20
2017-07-02T03:48:00.644Z,98.20
2017-07-02T03:50:28.245Z,98.20
2017-07-02T03:52:55.731Z,98.20
2017-07-02T03:55:24.540Z,98.50
2017-07-02T03:57:52.056Z,98.10
2017-07-02T04:00:19.529Z,98.20
2017-07-02T04:02:47.041Z,98.20
2017-07-02T04:05:15.057Z,98.20
2017-07-02T04:07:42.540Z,98.30
2017-07-02T04:10:10.792Z,98.30
2017-07-02T04:12:38.268Z,98.20
2017-07-02T04:15:06.525Z,98.20
2017-07-02T04:17:34.021Z,98.10
2017-07-02T04:20:02.038Z,98.10
2017-07-02T04:22:29.524Z,98.00
2017-07-02T04:24:57.775Z,98.20
2017-07-02T04:27:25.268Z,98.20
2017-07-02T04:29:52.749Z,98.20
2017-07-02T04:32:20.225Z,98.50
2017-07-02T04:34:47.718Z,98.30
2017-07-02T04:37:15.188Z,98.50
2017-07-02T04:39:43.861Z,98.30
2017-07-02T04:42:11.340Z,98.40
2017-07-02T04:44:39.596Z,98.00
2017-07-02T04:47:07.587Z,98.00
2017-07-02T04:49:35.849Z,97.90
2017-07-02T04:52:04.178Z,97.80
2017-07-02T04:54:31.646Z,97.60
2017-07-02T04:56:59.137Z,97.60
2017-07-02T04:59:26.643Z,97.40
2017-07-02T05:01:54.124Z,97.50
2017-07-02T05:04:21.647Z,97.80
2017-07-02T05:06:49.125Z,97.90
2017-07-02T05:09:16.641Z,98.00
2017-07-02T05:11:44.104Z,97.80
2017-07-02T05:14:12.401Z,97.50
2017-07-02T05:16:39.888Z,97.50
2017-07-02T05:19:07.369Z,97.20
2017-07-02T05:21:34.869Z,96.90
2017-07-02T05:24:02.361Z,96.80
2017-07-02T05:26:29.841Z,96.90
2017-07-02T05:28:57.345Z,96.70
2017-07-02T05:31:24.832Z,96.50
2017-07-02T05:33:52.328Z,96.30
2017-07-02T05:36:19.814Z,96.50
2017-07-02T05:38:47.332Z,96.50
2017-07-02T05:41:14.862Z,96.30
2017-07-02T05:43:42.396Z,96.50
2017-07-02T05:46:09.895Z,96.50
2017-07-02T05:48:37.383Z,96.50
2017-07-02T05:51:04.885Z,96.30
2017-07-02T05:53:32.396Z,96.00
2017-07-02T05:55:59.901Z,96.10
2017-07-02T05:58:27.392Z,96.10
2017-07-02T06:00:54.892Z,96.30
2017-07-02T06:03:23.149Z,96.00
2017-07-02T06:05:50.659Z,95.90
2017-07-02T06:08:18.141Z,95.80
2017-07-02T06:10:45.655Z,95.50
2017-07-02T06:13:13.138Z,95.10
2017-07-02T06:15:40.635Z,95.20
2017-07-02T06:18:08.141Z,95.10
2017-07-02T06:20:35.629Z,94.90
2017-07-02T06:23:03.107Z,95.00
2017-07-02T06:25:30.629Z,94.70
2017-07-02T06:27:58.109Z,94.90
2017-07-02T06:30:25.612Z,94.80
2017-07-02T06:32:53.890Z,94.50
2017-07-02T06:35:22.161Z,94.90
2017-07-02T06:37:50.411Z,94.10
2017-07-02T06:40:17.917Z,94.10
2017-07-02T06:42:45.405Z,94.10
2017-07-02T06:45:12.928Z,94.30
2017-07-02T06:47:40.414Z,93.80
2017-07-02T06:50:07.927Z,93.40
2017-07-02T06:52:36.193Z,93.00
2017-07-02T06:55:03.674Z,93.00
2017-07-02T06:57:31.178Z,92.40
2017-07-02T06:59:58.674Z,91.90
2017-07-02T07:02:26.171Z,92.00
2017-07-02T07:04:53.653Z,91.90
2017-07-02T07:07:21.172Z,91.40
2017-07-02T07:09:49.444Z,90.70
2017-07-02T07:12:17.725Z,89.50
2017-07-02T07:14:45.243Z,89.40
2017-07-02T07:17:12.717Z,90.00
2017-07-02T07:19:40.997Z,88.90
2017-07-02T07:22:09.254Z,90.30
2017-07-02T07:24:36.745Z,90.30
2017-07-02T07:27:05.049Z,86.40
2017-07-02T07:29:32.524Z,86.30
2017-07-02T07:32:00.033Z,84.40
2017-07-02T07:34:28.296Z,83.00
2017-07-02T07:36:56.568Z,82.20
2017-07-02T07:39:24.082Z,82.80
2017-07-02T07:41:51.567Z,82.00
2017-07-02T07:44:19.078Z,82.30
2017-07-02T07:46:46.570Z,81.70
2017-07-02T07:49:14.074Z,83.20
2017-07-02T07:51:42.324Z,84.20
2017-07-02T07:54:09.840Z,84.00
2017-07-02T07:56:37.332Z,82.60
2017-07-02T07:59:04.817Z,83.40
2017-07-02T08:01:32.325Z,81.20
2017-07-02T08:03:59.812Z,83.40
2017-07-02T08:06:27.324Z,83.50
2017-07-02T08:08:54.812Z,80.10
2017-07-02T08:11:22.291Z,81.80
2017-07-02T08:13:49.804Z,81.50
2017-07-02T08:16:17.300Z,77.70
2017-07-02T08:18:45.061Z,78.70
2017-07-02T08:21:12.572Z,78.90
2017-07-02T08:23:40.059Z,77.50
2017-07-02T08:26:07.558Z,76.40
2017-07-02T08:28:35.038Z,75.90
2017-07-02T08:31:03.326Z,79.50
2017-07-02T08:33:30.812Z,79.40
2017-07-02T08:35:58.305Z,76.30
2017-07-02T08:38:25.811Z,78.20
2017-07-02T08:40:53.297Z,76.90
2017-07-02T08:43:20.810Z,75.00
2017-07-02T08:45:49.062Z,77.80
2017-07-02T08:48:17.327Z,77.70
2017-07-02T08:50:44.821Z,77.30
2017-07-02T08:53:12.325Z,79.90
2017-07-02T08:55:39.840Z,81.40
2017-07-02T08:58:07.321Z,81.40
2017-07-02T09:00:34.805Z,81.30
2017-07-02T09:03:02.317Z,81.40
2017-07-02T09:05:29.801Z,79.60
2017-07-02T09:07:57.321Z,79.30
2017-07-02T09:10:25.568Z,81.00
2017-07-02T09:12:53.055Z,80.90
2017-07-02T09:15:21.728Z,81.30
2017-07-02T09:17:49.570Z,81.20
2017-07-02T09:20:17.108Z,79.60
2017-07-02T09:22:44.588Z,79.50
2017-07-02T09:25:12.083Z,81.00
2017-07-02T09:27:40.331Z,81.70
2017-07-02T09:30:07.815Z,81.70
2017-07-02T09:32:36.069Z,78.20
2017-07-02T09:35:03.557Z,77.90
2017-07-02T09:37:31.072Z,79.80
2017-07-02T09:39:58.602Z,76.00
2017-07-02T09:42:26.078Z,76.90
2017-07-02T09:44:53.588Z,75.80
2017-07-02T09:47:21.836Z,76.30
2017-07-02T09:49:49.357Z,76.20
2017-07-02T09:52:16.842Z,76.10
2017-07-02T09:54:44.334Z,76.10
2017-07-02T09:57:12.572Z,75.50
2017-07-02T09:59:40.055Z,75.50
2017-07-02T10:02:07.564Z,73.10
2017-07-02T10:04:35.417Z,73.30
2017-07-02T10:07:03.668Z,73.10
2017-07-02T10:09:32.264Z,69.50
2017-07-02T10:12:00.996Z,70.40
2017-07-02T10:14:28.489Z,70.40
2017-07-02T10:16:55.999Z,70.30
2017-07-02T10:19:23.504Z,73.60
2017-07-02T10:21:50.984Z,73.20
2017-07-02T10:24:19.278Z,71.00
2017-07-02T10:26:47.096Z,71.00
2017-07-02T10:29:14.633Z,71.80
2017-07-02T10:31:42.177Z,70.80
2017-07-02T10:34:09.664Z,71.00
2017-07-02T10:36:37.215Z,69.60
2017-07-02T10:39:04.696Z,67.00
2017-07-02T10:41:32.218Z,67.80
2017-07-02T10:43:59.702Z,65.20
2017-07-02T10:46:27.221Z,62.60
2017-07-02T10:48:54.716Z,60.00
2017-07-02T10:51:22.233Z,60.90
2017-07-02T10:53:49.734Z,61.10
2017-07-02T10:56:17.244Z,57.70
2017-07-02T10:58:44.742Z,56.50
2017-07-02T11:01:12.985Z,51.30
2017-07-02T11:03:40.444Z,51.20
2017-07-02T11:06:07.950Z,52.00
2017-07-02T11:08:35.466Z,49.10
2017-07-02T11:11:02.955Z,53.50
2017-07-02T11:13:31.196Z,58.60
2017-07-02T11:15:58.666Z,58.60
2017-07-02T11:18:26.159Z,60.80
2017-07-02T11:20:53.649Z,60.70
2017-07-02T11:23:21.141Z,65.20
2017-07-02T11:25:48.626Z,67.90
2017-07-02T11:28:16.888Z,65.80
2017-07-02T11:30:45.145Z,66.00
2017-07-02T11:33:12.612Z,65.90
2017-07-02T11:35:40.108Z,65.40
2017-07-02T11:38:07.605Z,66.30
2017-07-02T11:40:35.115Z,66.10
2017-07-02T11:43:04.337Z,64.90
2017-07-02T11:45:31.850Z,65.00
2017-07-02T11:48:00.091Z,62.60
2017-07-02T11:50:27.577Z,62.50
2017-07-02T11:52:55.081Z,63.60
2017-07-02T11:55:22.608Z,60.40
2017-07-02T11:57:50.886Z,60.40
2017-07-02T12:00:19.137Z,58.10
2017-07-02T12:02:46.633Z,58.10
2017-07-02T12:05:14.104Z,56.80
2017-07-02T12:07:41.581Z,54.60
2017-07-02T12:10:09.077Z,55.00
2017-07-02T12:12:36.548Z,51.10
2017-07-02T12:15:04.835Z,47.70
2017-07-02T12:17:33.144Z,49.10
2017-07-02T12:20:00.625Z,49.00
2017-07-02T12:22:28.118Z,46.10
2017-07-02T12:24:56.392Z,46.60
2017-07-02T12:27:24.640Z,47.60
2017-07-02T12:29:52.173Z,47.00
2017-07-02T12:32:19.666Z,48.10
2017-07-02T12:34:47.191Z,51.40
2017-07-02T12:37:14.709Z,52.10
2017-07-02T12:39:42.961Z,56.00
2017-07-02T12:42:10.442Z,56.00
2017-07-02T12:44:38.767Z,57.60
2017-07-02T12:47:06.244Z,57.60
2017-07-02T12:49:33.776Z,57.00
2017-07-02T12:52:01.251Z,57.10
2017-07-02T12:54:28.752Z,56.70
2017-07-02T12:56:57.074Z,54.90
2017-07-02T12:59:24.550Z,54.90
2017-07-02T13:01:52.088Z,55.70
2017-07-02T13:04:19.559Z,55.60
2017-07-02T13:06:47.105Z,56.80
2017-07-02T13:09:14.587Z,56.20
2017-07-02T13:11:42.226Z,56.50
2017-07-02T13:14:09.704Z,55.90
2017-07-02T13:16:37.189Z,56.40
2017-07-02T13:19:05.494Z,57.00
2017-07-02T13:21:33.754Z,57.50
2017-07-02T13:24:02.010Z,57.60
2017-07-02T13:26:31.653Z,57.90
2017-07-02T13:28:59.130Z,58.10
2017-07-02T13:31:26.639Z,59.20
2017-07-02T13:33:54.115Z,59.40
2017-07-02T13:36:21.632Z,60.00
2017-07-02T13:38:49.126Z,59.80
2017-07-02T13:41:16.600Z,60.60
2017-07-02T13:43:44.092Z,60.00
2017-07-02T13:46:12.348Z,61.40
2017-07-02T13:48:39.859Z,61.40
2017-07-02T13:51:07.357Z,61.80
2017-07-02T13:53:34.857Z,62.90
2017-07-02T13:56:02.345Z,63.30
2017-07-02T13:58:29.832Z,64.10
2017-07-02T14:00:57.363Z,65.20
2017-07-02T14:03:24.849Z,64.90
2017-07-02T14:05:52.375Z,65.50
2017-07-02T14:08:19.845Z,66.10
2017-07-02T14:10:47.359Z,66.70
2017-07-02T14:13:15.605Z,65.90
2017-07-02T14:15:43.125Z,65.90
2017-07-02T14:18:10.606Z,66.10
2017-07-02T14:20:38.114Z,65.60
2017-07-02T14:23:05.602Z,66.30
2017-07-02T14:25:33.086Z,65.90
2017-07-02T14:28:00.575Z,66.60
2017-07-02T14:30:28.809Z,66.30
2017-07-02T14:32:56.322Z,66.20
2017-07-02T14:35:24.565Z,65.60
2017-07-02T14:37:52.201Z,65.60
2017-07-02T14:40:19.695Z,65.90
2017-07-02T14:42:47.204Z,66.50
2017-07-02T14:45:14.695Z,66.30
2017-07-02T14:47:42.180Z,66.10
2017-07-02T14:50:10.425Z,67.10
2017-07-02T14:52:37.931Z,67.10
2017-07-02T14:55:05.398Z,66.70
2017-07-02T14:57:32.860Z,66.90
2017-07-02T15:00:00.364Z,68.40
2017-07-02T15:02:27.865Z,66.50
2017-07-02T15:04:55.395Z,66.90
2017-07-02T15:07:22.869Z,67.20
2017-07-02T15:09:50.366Z,66.90
2017-07-02T15:12:17.870Z,67.40
2017-07-02T15:14:45.375Z,68.20
2017-07-02T15:17:12.888Z,70.20
2017-07-02T15:19:40.380Z,73.00
2017-07-02T15:22:07.868Z,74.00
2017-07-02T15:24:36.108Z,78.20
2017-07-02T15:27:03.648Z,77.40
2017-07-02T15:29:31.133Z,77.90
2017-07-02T15:31:58.612Z,76.90
2017-07-02T15:34:26.893Z,78.20
2017-07-02T15:36:55.149Z,78.10
2017-07-02T15:39:22.660Z,78.10
2017-07-02T15:41:50.153Z,79.20
2017-07-02T15:44:17.642Z,78.40
2017-07-02T15:46:45.915Z,78.20
2017-07-02T15:49:14.168Z,78.50
2017-07-02T15:51:41.666Z,78.50
2017-07-02T15:54:09.157Z,78.50
2017-07-02T15:56:36.669Z,76.40
2017-07-02T15:59:04.919Z,77.40
2017-07-02T16:01:32.445Z,77.40
2017-07-02T16:03:59.961Z,77.50
2017-07-02T16:06:28.395Z,76.90
2017-07-02T16:08:57.601Z,79.10
2017-07-02T16:11:26.171Z,79.10
2017-07-02T16:13:54.274Z,78.70
2017-07-02T16:16:21.991Z,78.10
2017-07-02T16:18:51.775Z,77.50
2017-07-02T16:21:21.620Z,77.00
2017-07-02T16:23:50.318Z,78.30
2017-07-02T16:26:18.521Z,78.50
2017-07-02T16:28:46.043Z,78.30
2017-07-02T16:31:13.511Z,78.80
2017-07-02T16:33:41.010Z,78.30
2017-07-02T16:36:08.493Z,78.20
2017-07-02T16:38:36.001Z,78.70
2017-07-02T16:41:04.246Z,77.30
2017-07-02T16:43:31.743Z,77.10
2017-07-02T16:46:00.017Z,75.70
2017-07-02T16:48:28.293Z,75.90
2017-07-02T16:50:56.556Z,76.10
2017-07-02T16:53:24.037Z,76.10
2017-07-02T16:55:52.308Z,75.50
2017-07-02T16:58:20.560Z,75.80
2017-07-02T17:00:48.036Z,75.80
2017-07-02T17:03:15.560Z,75.50
2017-07-02T17:05:43.042Z,75.40
2017-07-02T17:08:10.533Z,74.60
2017-07-02T17:10:38.026Z,73.60
2017-07-02T17:13:05.538Z,73.40
2017-07-02T17:15:33.780Z,73.20
2017-07-02T17:18:01.254Z,73.00
2017-07-02T17:20:28.749Z,72.80
2017-07-02T17:22:56.269Z,73.00
2017-07-02T17:25:23.760Z,73.30
2017-07-02T17:27:51.248Z,73.20
2017-07-02T17:30:18.748Z,73.20
2017-07-02T17:32:46.252Z,72.70
2017-07-02T17:35:13.732Z,72.70
2017-07-02T17:37:41.244Z,72.80
2017-07-02T17:40:09.502Z,73.00
2017-07-02T17:42:37.021Z,73.00
2017-07-02T17:45:04.513Z,71.70
2017-07-02T17:47:31.993Z,71.00
2017-07-02T17:50:00.249Z,73.30
2017-07-02T17:52:27.748Z,73.40
2017-07-02T17:54:55.258Z,72.90
2017-07-02T17:57:22.886Z,72.60
2017-07-02T17:59:50.362Z,72.00
2017-07-02T18:02:17.861Z,72.00
2017-07-02T18:04:46.113Z,71.30
2017-07-02T18:07:13.637Z,71.20
2017-07-02T18:09:41.119Z,71.80
2017-07-02T18:12:08.625Z,71.20
2017-07-02T18:14:36.867Z,71.20
2017-07-02T18:17:04.357Z,71.10
2017-07-02T18:19:32.642Z,71.60
2017-07-02T18:22:00.117Z,71.60
2017-07-02T18:24:27.613Z,71.70
2017-07-02T18:26:55.147Z,71.90
2017-07-02T18:29:22.661Z,71.70
2017-07-02T18:31:50.927Z,71.80
2017-07-02T18:34:19.182Z,72.10
2017-07-02T18:36:46.709Z,72.00
2017-07-02T18:39:14.222Z,72.40
2017-07-02T18:41:42.501Z,73.60
2017-07-02T18:44:10.873Z,72.30
2017-07-02T18:46:38.358Z,72.20
2017-07-02T18:49:05.881Z,72.60
2017-07-02T18:51:33.356Z,72.10
2017-07-02T18:54:01.614Z,71.90
2017-07-02T18:56:29.123Z,71.90
2017-07-02T18:58:56.626Z,72.60
2017-07-02T19:01:24.120Z,72.60
2017-07-02T19:03:53.461Z,72.30
2017-07-02T19:06:22.502Z,72.10
2017-07-02T19:08:51.152Z,73.50
2017-07-02T19:11:18.652Z,73.20
2017-07-02T19:13:46.153Z,74.00
2017-07-02T19:16:13.672Z,73.80
2017-07-02T19:18:41.138Z,74.00
2017-07-02T19:21:09.401Z,75.20
2017-07-02T19:23:36.912Z,75.00
2017-07-02T19:26:04.437Z,75.40
2017-07-02T19:28:32.681Z,75.80
2017-07-02T19:31:00.204Z,75.80
2017-07-02T19:33:27.739Z,75.80
2017-07-02T19:35:55.231Z,77.20
2017-07-02T19:38:22.727Z,77.60
2017-07-02T19:40:50.200Z,79.30
2017-07-02T19:43:18.534Z,82.10
2017-07-02T19:45:46.033Z,82.10
2017-07-02T19:48:14.321Z,85.50
2017-07-02T19:50:42.570Z,86.90
2017-07-02T19:53:10.070Z,86.90
2017-07-02T19:55:37.576Z,87.50
2017-07-02T19:58:05.054Z,88.90
2017-07-02T20:00:32.570Z,89.20
2017-07-02T20:03:00.061Z,88.30
2017-07-02T20:05:28.340Z,87.80
2017-07-02T20:07:55.894Z,87.10
2017-07-02T20:10:23.385Z,86.40
2017-07-02T20:12:51.635Z,85.30
2017-07-02T20:15:19.143Z,85.20
2017-07-02T20:17:46.623Z,86.50
2017-07-02T20:20:14.113Z,86.00
2017-07-02T20:22:41.620Z,87.70
2017-07-02T20:25:09.139Z,86.20
2017-07-02T20:27:36.639Z,86.30
2017-07-02T20:30:04.120Z,86.90
2017-07-02T20:32:31.633Z,87.60
2017-07-02T20:34:59.872Z,87.50
2017-07-02T20:37:27.398Z,87.50
2017-07-02T20:39:54.894Z,87.50
2017-07-02T20:42:22.380Z,87.80
2017-07-02T20:44:50.652Z,88.00
2017-07-02T20:47:18.891Z,87.20
2017-07-02T20:49:46.396Z,86.40
2017-07-02T20:52:14.655Z,86.50
2017-07-02T20:54:42.920Z,87.00
2017-07-02T20:57:10.458Z,87.00
2017-07-02T20:59:37.956Z,87.20
2017-07-02T21:02:06.224Z,87.00
2017-07-02T21:04:34.497Z,86.80
2017-07-02T21:07:01.985Z,86.80
2017-07-02T21:09:29.523Z,86.30
2017-07-02T21:11:57.006Z,86.00
2017-07-02T21:14:24.497Z,86.20
2017-07-02T21:16:51.978Z,86.40
2017-07-02T21:19:19.462Z,86.70
2017-07-02T21:21:47.736Z,86.50
2017-07-02T21:24:15.992Z,86.20
2017-07-02T21:26:43.528Z,86.20
2017-07-02T21:29:11.033Z,86.80
2017-07-02T21:31:39.313Z,89.70
2017-07-02T21:34:06.821Z,89.60
2017-07-02T21:36:34.336Z,90.60
2017-07-02T21:39:01.858Z,91.30
2017-07-02T21:41:29.348Z,91.30
2017-07-02T21:43:56.839Z,91.50
2017-07-02T21:46:25.090Z,92.20
2017-07-02T21:48:52.584Z,92.20
2017-07-02T21:51:20.070Z,92.40
2017-07-02T21:53:47.637Z,92.50
2017-07-02T21:56:15.123Z,91.80
2017-07-02T21:58:42.603Z,91.80
2017-07-02T22:01:10.889Z,91.80
2017-07-02T22:03:39.133Z,91.50
2017-07-02T22:06:06.659Z,91.50
2017-07-02T22:08:34.133Z,91.80
2017-07-02T22:11:01.824Z,91.10
2017-07-02T22:13:29.325Z,90.70
2017-07-02T22:15:56.809Z,90.40
2017-07-02T22:18:24.306Z,90.70
2017-07-02T22:20:52.571Z,90.90
2017-07-02T22:23:20.075Z,90.50
2017-07-02T22:25:47.578Z,90.60
2017-07-02T22:28:15.059Z,90.60
2017-07-02T22:30:42.553Z,90.50
2017-07-02T22:33:10.037Z,90.70
2017-07-02T22:35:37.529Z,90.40
2017-07-02T22:38:05.029Z,90.30
2017-07-02T22:40:32.504Z,90.00
2017-07-02T22:42:59.987Z,90.00
2017-07-02T22:45:27.480Z,90.00
2017-07-02T22:47:55.749Z,90.00
2017-07-02T22:50:24.024Z,90.10
2017-07-02T22:52:52.288Z,90.00
2017-07-02T22:55:19.761Z,90.00
2017-07-02T22:57:48.030Z,90.00
2017-07-02T23:00:15.538Z,90.00
2017-07-02T23:02:43.046Z,89.80
2017-07-02T23:05:11.311Z,90.00
2017-07-02T23:07:38.800Z,90.00
2017-07-02T23:10:07.040Z,90.20
2017-07-02T23:12:34.533Z,90.20
2017-07-02T23:15:02.779Z,90.50
2017-07-02T23:17:30.263Z,90.50
2017-07-02T23:19:58.578Z,90.00
2017-07-02T23:22:26.061Z,90.00
2017-07-02T23:24:53.539Z,89.80
2017-07-02T23:27:21.024Z,90.00
2017-07-02T23:29:48.500Z,90.00
2017-07-02T23:32:16.000Z,89.70
2017-07-02T23:34:43.530Z,89.80
2017-07-02T23:37:11.043Z,90.30
2017-07-02T23:39:39.276Z,89.50
2017-07-02T23:42:06.761Z,90.00
2017-07-02T23:44:34.264Z,90.20
2017-07-02T23:47:01.749Z,90.20
2017-07-02T23:49:29.245Z,90.30
2017-07-02T23:51:57.490Z,90.40
2017-07-02T23:54:24.985Z,90.30
2017-07-02T23:56:53.236Z,90.20
2017-07-02T23:59:20.713Z,90.20
